Time;durP1;ratioP1;P1;durP2;ratioP2;P2;SDS_P1;SDS_P2;PMS_P1;PMS_P2;Temp;Humidity;BMP_temperature;BMP_pressure;BME280_temperature;BME280_humidity;BME280_pressure;Samples;Min_cycle;Max_cycle;Signal;HPM_P1;HPM_P2
2023/09/14 00:00:53;;;;;;;1.83;1.40;;;11.90;99.90;;;;;;6184276;23;20028;-68
2023/09/14 00:03:19;;;;;;;2.35;1.20;;;11.80;99.90;;;;;;6211138;23;20352;-69
2023/09/14 00:05:46;;;;;;;1.80;1.40;;;11.80;99.90;;;;;;6211076;23;20099;-68
2023/09/14 00:08:12;;;;;;;2.75;2.17;;;11.80;99.90;;;;;;6184379;23;20017;-68
2023/09/14 00:10:39;;;;;;;4.18;1.55;;;11.80;99.90;;;;;;6184857;23;20341;-69
2023/09/14 00:13:05;;;;;;;7.32;2.08;;;11.80;99.90;;;;;;6210991;23;20008;-70
2023/09/14 00:15:32;;;;;;;3.10;1.80;;;11.80;99.90;;;;;;6184398;23;20055;-68
2023/09/14 00:17:57;;;;;;;3.10;1.60;;;11.70;99.90;;;;;;6184358;23;20025;-69
2023/09/14 00:20:26;;;;;;;3.47;1.63;;;11.80;99.90;;;;;;6210720;23;20100;-69
2023/09/14 00:22:53;;;;;;;3.97;1.83;;;11.70;99.90;;;;;;6210889;23;20111;-68
2023/09/14 00:25:20;;;;;;;4.13;2.05;;;11.70;99.90;;;;;;6211268;23;20316;-68
2023/09/14 00:27:46;;;;;;;3.60;1.75;;;11.70;99.90;;;;;;6184098;23;20094;-68
2023/09/14 00:30:12;;;;;;;6.78;2.33;;;11.70;99.90;;;;;;6184333;23;20025;-68
2023/09/14 00:32:40;;;;;;;3.95;1.95;;;11.60;99.90;;;;;;6211232;23;20020;-68
2023/09/14 00:35:13;;;;;;;4.53;1.80;;;11.60;99.90;;;;;;6183856;23;20807;-68
2023/09/14 00:37:40;;;;;;;4.78;1.92;;;11.50;99.90;;;;;;6211182;23;20020;-68
2023/09/14 00:40:07;;;;;;;2.08;1.70;;;11.50;99.90;;;;;;6210730;23;20031;-68
2023/09/14 00:43:02;;;;;;;1.60;1.50;;;11.50;99.90;;;;;;6184344;23;20052;-68
2023/09/14 00:45:28;;;;;;;4.10;1.63;;;11.40;99.90;;;;;;6153001;23;20444;-68
2023/09/14 00:47:58;;;;;;;4.15;1.70;;;11.40;99.90;;;;;;6210835;23;20024;-68
2023/09/14 00:50:29;;;;;;;4.40;1.70;;;11.40;99.90;;;;;;6184152;23;20574;-68
2023/09/14 00:53:11;;;;;;;2.40;1.50;;;11.40;99.90;;;;;;6210717;23;20047;-68
2023/09/14 00:55:38;;;;;;;2.58;1.83;;;11.50;99.90;;;;;;6184209;23;20048;-68
2023/09/14 00:58:04;;;;;;;2.88;1.80;;;11.50;99.90;;;;;;6210471;23;20027;-68
2023/09/14 01:00:31;;;;;;;2.05;1.75;;;11.50;99.90;;;;;;6183851;23;20096;-68
2023/09/14 01:02:58;;;;;;;4.03;2.35;;;11.50;99.90;;;;;;6183750;23;20023;-68
2023/09/14 01:05:30;;;;;;;3.33;2.20;;;11.40;99.90;;;;;;6184005;23;20071;-68
2023/09/14 01:07:57;;;;;;;6.05;1.85;;;11.40;99.90;;;;;;6210531;23;20028;-68
2023/09/14 01:10:23;;;;;;;2.92;1.90;;;11.50;99.90;;;;;;6159222;23;20348;-68
2023/09/14 01:12:49;;;;;;;2.35;2.15;;;11.40;99.90;;;;;;6184076;23;20095;-68
2023/09/14 01:15:51;;;;;;;3.70;1.80;;;11.40;99.90;;;;;;6183935;23;20024;-68
2023/09/14 01:18:20;;;;;;;3.55;2.08;;;11.40;99.90;;;;;;6107079;23;20026;-68
2023/09/14 01:20:57;;;;;;;2.50;1.90;;;11.40;99.90;;;;;;6183871;23;20084;-68
2023/09/14 01:23:41;;;;;;;6.25;1.98;;;11.40;99.90;;;;;;6210652;23;20693;-68
2023/09/14 01:26:09;;;;;;;8.75;2.50;;;11.30;99.90;;;;;;6184061;23;20020;-68
2023/09/14 01:28:34;;;;;;;3.70;2.50;;;11.30;99.90;;;;;;6183813;23;20063;-68
2023/09/14 01:31:00;;;;;;;4.70;2.45;;;11.40;99.90;;;;;;6211365;23;20631;-68
2023/09/14 01:33:27;;;;;;;3.50;2.42;;;11.30;99.90;;;;;;6212573;23;20067;-68
2023/09/14 01:36:20;;;;;;;4.50;1.92;;;11.30;99.90;;;;;;6213033;23;20074;-69
2023/09/14 01:38:47;;;;;;;5.38;2.20;;;11.30;99.90;;;;;;6213070;23;20082;-68
2023/09/14 01:41:14;;;;;;;5.80;2.08;;;11.30;99.90;;;;;;6186317;23;20021;-69
2023/09/14 01:43:43;;;;;;;3.97;2.20;;;11.30;99.90;;;;;;6212964;23;20032;-69
2023/09/14 01:46:09;;;;;;;3.55;2.30;;;11.30;99.90;;;;;;6212518;23;20026;-68
2023/09/14 01:48:35;;;;;;;4.57;2.38;;;11.30;99.90;;;;;;6212665;23;20020;-69
2023/09/14 01:51:00;;;;;;;6.75;2.17;;;11.30;99.90;;;;;;6212821;23;20024;-69
2023/09/14 01:53:26;;;;;;;5.80;2.05;;;11.30;99.90;;;;;;6212353;23;20025;-69
2023/09/14 01:55:52;;;;;;;2.85;1.67;;;11.20;99.90;;;;;;6212329;23;20020;-69
2023/09/14 01:58:18;;;;;;;4.68;1.90;;;11.20;99.90;;;;;;6211972;23;20074;-69
2023/09/14 02:00:43;;;;;;;4.47;1.80;;;11.20;99.90;;;;;;6185267;23;20035;-69
2023/09/14 02:03:09;;;;;;;4.03;2.10;;;11.20;99.90;;;;;;6161175;23;20027;-69
2023/09/14 02:05:35;;;;;;;3.50;2.22;;;11.10;99.90;;;;;;6212147;23;20226;-69
2023/09/14 02:08:00;;;;;;;4.45;2.00;;;11.10;99.90;;;;;;6212597;23;20035;-69
2023/09/14 02:10:26;;;;;;;3.28;2.10;;;11.10;99.90;;;;;;6212425;23;20314;-69
2023/09/14 02:12:52;;;;;;;4.15;1.98;;;11.10;99.90;;;;;;6185456;23;20032;-69
2023/09/14 02:15:18;;;;;;;2.55;2.17;;;11.10;99.90;;;;;;6160557;23;20395;-69
2023/09/14 02:17:44;;;;;;;2.53;1.92;;;11.00;99.90;;;;;;6185474;23;20025;-69
2023/09/14 02:20:10;;;;;;;2.17;1.75;;;11.00;99.90;;;;;;6212397;23;20032;-69
2023/09/14 02:22:36;;;;;;;3.22;2.22;;;11.00;99.90;;;;;;6212150;23;20066;-69
2023/09/14 02:25:02;;;;;;;3.60;2.00;;;11.00;99.90;;;;;;6212691;23;20024;-68
2023/09/14 02:27:28;;;;;;;9.85;2.50;;;11.00;99.90;;;;;;6212336;23;20429;-68
2023/09/14 02:29:54;;;;;;;2.28;1.83;;;11.00;99.90;;;;;;6212508;23;20016;-68
2023/09/14 02:32:20;;;;;;;3.08;2.25;;;11.00;99.90;;;;;;6211226;23;20419;-68
2023/09/14 02:34:48;;;;;;;4.43;2.25;;;10.90;99.90;;;;;;6185663;23;20094;-69
2023/09/14 02:37:14;;;;;;;4.60;2.00;;;10.90;99.90;;;;;;6212570;23;20025;-68
2023/09/14 02:39:40;;;;;;;3.50;2.22;;;10.80;99.90;;;;;;6212416;23;20051;-69
2023/09/14 02:42:06;;;;;;;6.82;3.00;;;10.90;99.90;;;;;;6212329;23;20028;-68
2023/09/14 02:44:32;;;;;;;4.60;1.63;;;10.90;99.90;;;;;;6159859;23;20024;-68
2023/09/14 02:46:58;;;;;;;3.63;1.73;;;10.90;99.90;;;;;;6212002;23;20027;-69
2023/09/14 02:49:23;;;;;;;4.28;1.88;;;10.90;99.90;;;;;;6185364;23;20047;-69
2023/09/14 02:51:51;;;;;;;2.10;1.50;;;10.90;99.90;;;;;;6185422;23;20048;-68
2023/09/14 02:54:17;;;;;;;5.72;1.58;;;10.80;99.90;;;;;;6185107;23;20511;-68
2023/09/14 02:56:43;;;;;;;2.95;1.73;;;10.80;99.90;;;;;;6211737;23;20021;-69
2023/09/14 02:59:09;;;;;;;1.98;1.63;;;10.80;99.90;;;;;;6212099;23;20013;-69
2023/09/14 03:01:34;;;;;;;1.40;1.30;;;10.80;99.90;;;;;;6212215;23;20297;-69
2023/09/14 03:04:00;;;;;;;3.92;1.38;;;10.80;99.90;;;;;;6185319;23;20020;-68
2023/09/14 03:06:26;;;;;;;2.35;1.90;;;10.70;99.90;;;;;;6185597;23;20027;-68
2023/09/14 03:08:52;;;;;;;2.28;1.60;;;10.70;99.90;;;;;;6185980;23;20016;-68
2023/09/14 03:11:18;;;;;;;2.13;1.92;;;10.70;99.90;;;;;;6212088;23;20087;-68
2023/09/14 03:13:43;;;;;;;4.15;2.05;;;10.70;99.90;;;;;;6212149;23;20023;-68
2023/09/14 03:16:09;;;;;;;4.07;1.92;;;10.70;99.90;;;;;;6185090;23;20075;-68
2023/09/14 03:18:35;;;;;;;1.92;1.40;;;10.70;99.90;;;;;;6160278;23;20032;-68
2023/09/14 03:21:00;;;;;;;2.63;1.60;;;10.70;99.90;;;;;;6211804;23;20107;-68
2023/09/14 03:23:26;;;;;;;4.72;1.55;;;10.70;99.90;;;;;;6185151;23;20088;-68
2023/09/14 03:25:52;;;;;;;2.83;1.60;;;10.70;99.90;;;;;;6185008;23;20448;-69
2023/09/14 03:28:18;;;;;;;4.65;1.92;;;10.70;99.90;;;;;;6211685;23;20059;-69
2023/09/14 03:30:44;;;;;;;1.48;1.38;;;10.60;99.90;;;;;;6211706;23;20091;-68
2023/09/14 03:33:11;;;;;;;1.92;1.35;;;10.60;99.90;;;;;;6184914;23;20551;-69
2023/09/14 03:35:37;;;;;;;2.97;1.30;;;10.60;99.90;;;;;;6212030;23;20008;-68
2023/09/14 03:38:03;;;;;;;1.92;1.25;;;10.60;99.90;;;;;;6185064;23;20016;-69
2023/09/14 03:40:29;;;;;;;3.85;1.70;;;10.50;99.90;;;;;;6184812;23;20400;-69
2023/09/14 03:42:54;;;;;;;4.28;2.45;;;10.50;99.90;;;;;;6185084;23;20715;-69
2023/09/14 03:45:20;;;;;;;8.48;2.03;;;10.40;99.90;;;;;;6211726;23;20032;-68
2023/09/14 03:47:49;;;;;;;4.15;2.13;;;10.50;99.90;;;;;;6185040;23;20083;-68
2023/09/14 03:50:15;;;;;;;6.10;2.17;;;10.50;99.90;;;;;;6185063;23;20024;-68
2023/09/14 03:52:41;;;;;;;3.70;2.13;;;10.50;99.90;;;;;;6160053;23;20024;-69
2023/09/14 03:55:07;;;;;;;3.92;2.30;;;10.50;99.90;;;;;;6211853;23;20013;-69
2023/09/14 03:57:33;;;;;;;3.88;2.08;;;10.60;99.90;;;;;;6184164;23;20052;-69
2023/09/14 03:59:58;;;;;;;5.85;2.38;;;10.60;99.90;;;;;;6211487;23;20042;-69
2023/09/14 04:02:24;;;;;;;3.78;2.28;;;10.50;99.90;;;;;;6211442;23;20029;-69
2023/09/14 04:04:50;;;;;;;3.83;2.20;;;10.40;99.90;;;;;;6184674;23;20206;-68
2023/09/14 04:07:16;;;;;;;4.15;2.20;;;10.50;99.90;;;;;;6211441;23;20075;-68
2023/09/14 04:09:42;;;;;;;4.18;2.50;;;10.50;99.90;;;;;;6211414;23;20028;-69
2023/09/14 04:12:09;;;;;;;3.55;2.20;;;10.50;99.90;;;;;;6184306;23;20444;-69
2023/09/14 04:14:34;;;;;;;3.63;2.33;;;10.50;99.90;;;;;;6184684;23;20556;-68
2023/09/14 04:17:01;;;;;;;2.40;2.08;;;10.50;99.90;;;;;;6184619;23;20032;-69
2023/09/14 04:19:28;;;;;;;2.33;2.03;;;10.50;99.90;;;;;;6211388;23;20404;-68
2023/09/14 04:21:54;;;;;;;2.28;1.85;;;10.50;99.90;;;;;;6211618;23;20016;-69
2023/09/14 04:24:20;;;;;;;5.70;2.35;;;10.50;99.90;;;;;;6184572;23;20029;-68
2023/09/14 04:26:46;;;;;;;4.70;2.30;;;10.50;99.90;;;;;;6184229;23;20024;-68
2023/09/14 04:29:12;;;;;;;2.90;2.28;;;10.50;99.90;;;;;;6184246;23;20020;-68
2023/09/14 04:31:38;;;;;;;4.65;2.88;;;10.50;99.90;;;;;;6211072;23;20051;-68
2023/09/14 04:34:07;;;;;;;6.97;2.20;;;10.50;99.90;;;;;;6211314;23;20139;-68
2023/09/14 04:36:33;;;;;;;3.35;2.30;;;10.40;99.90;;;;;;6184328;23;20091;-68
2023/09/14 04:39:03;;;;;;;4.07;2.15;;;10.40;99.90;;;;;;6211497;23;20009;-68
2023/09/14 04:41:32;;;;;;;4.97;2.47;;;10.40;99.90;;;;;;6210965;23;20021;-68
2023/09/14 04:43:58;;;;;;;6.05;2.13;;;10.40;99.90;;;;;;6211151;23;20400;-68
2023/09/14 04:46:24;;;;;;;4.20;2.20;;;10.40;99.90;;;;;;6211288;23;20027;-68
2023/09/14 04:48:50;;;;;;;2.70;1.70;;;10.40;99.90;;;;;;6184802;23;20439;-68
2023/09/14 04:51:15;;;;;;;5.63;2.08;;;10.40;99.90;;;;;;6211034;23;20071;-68
2023/09/14 04:53:41;;;;;;;3.03;1.98;;;10.30;99.90;;;;;;6210732;23;20028;-68
2023/09/14 04:56:07;;;;;;;2.92;1.88;;;10.20;99.90;;;;;;6210753;23;20028;-68
2023/09/14 04:58:33;;;;;;;2.33;1.67;;;10.10;99.90;;;;;;6184473;23;20027;-68
2023/09/14 05:00:59;;;;;;;1.88;1.50;;;10.10;99.90;;;;;;6211249;23;20017;-68
2023/09/14 05:03:25;;;;;;;3.17;1.63;;;10.10;99.90;;;;;;6210796;23;20012;-68
2023/09/14 05:05:52;;;;;;;2.42;1.08;;;10.00;99.90;;;;;;6184112;23;20033;-68
2023/09/14 05:08:18;;;;;;;2.55;1.55;;;10.00;99.90;;;;;;6210643;23;20025;-68
2023/09/14 05:10:44;;;;;;;1.40;1.30;;;10.00;99.90;;;;;;6210704;23;20070;-68
2023/09/14 05:13:10;;;;;;;3.53;1.80;;;10.10;99.90;;;;;;6210589;23;20036;-68
2023/09/14 05:15:36;;;;;;;2.72;1.52;;;10.10;99.90;;;;;;6211015;23;20028;-68
2023/09/14 05:18:02;;;;;;;3.33;2.10;;;10.10;99.90;;;;;;6211002;23;20020;-68
2023/09/14 05:20:28;;;;;;;2.28;1.70;;;10.10;99.90;;;;;;6184265;23;20113;-68
2023/09/14 05:22:54;;;;;;;3.15;2.20;;;10.20;99.90;;;;;;6211067;23;20025;-68
2023/09/14 05:25:20;;;;;;;4.25;1.50;;;10.20;99.90;;;;;;6210751;23;20730;-68
2023/09/14 05:27:46;;;;;;;4.40;1.70;;;10.20;99.90;;;;;;6210515;23;20024;-68
2023/09/14 05:30:12;;;;;;;3.85;1.98;;;10.30;99.90;;;;;;6210939;23;20023;-69
2023/09/14 05:32:41;;;;;;;3.22;2.20;;;10.20;99.90;;;;;;6210997;23;20471;-68
2023/09/14 05:35:07;;;;;;;3.08;2.33;;;10.20;99.90;;;;;;6211231;23;20024;-68
2023/09/14 05:37:36;;;;;;;3.58;1.98;;;10.30;99.90;;;;;;6184636;23;20321;-69
2023/09/14 05:40:08;;;;;;;2.58;1.77;;;10.30;99.90;;;;;;6210981;23;20051;-67
2023/09/14 05:42:34;;;;;;;2.50;1.75;;;10.30;99.90;;;;;;6211401;23;20092;-68
2023/09/14 05:44:59;;;;;;;2.75;1.90;;;10.40;99.90;;;;;;6184225;23;20130;-69
2023/09/14 05:47:25;;;;;;;1.77;1.67;;;10.40;99.90;;;;;;6183911;23;20028;-68
2023/09/14 05:49:51;;;;;;;2.40;2.20;;;10.40;99.90;;;;;;6210809;23;20016;-69
2023/09/14 05:52:17;;;;;;;3.90;2.03;;;10.40;99.90;;;;;;6183847;23;20078;-69
2023/09/14 05:54:42;;;;;;;2.17;1.85;;;10.40;99.90;;;;;;6183513;23;20024;-69
2023/09/14 05:57:09;;;;;;;4.22;1.95;;;10.40;99.90;;;;;;6183423;23;20024;-68
2023/09/14 05:59:35;;;;;;;2.80;2.00;;;10.50;99.90;;;;;;6210891;23;20013;-69
2023/09/14 06:02:00;;;;;;;3.42;2.10;;;10.50;99.90;;;;;;6210329;23;20094;-69
2023/09/14 06:04:26;;;;;;;4.22;1.73;;;10.50;99.90;;;;;;6210482;23;20020;-68
2023/09/14 06:06:52;;;;;;;4.07;1.90;;;10.60;99.90;;;;;;6210342;23;20020;-69
2023/09/14 06:09:17;;;;;;;3.38;1.77;;;10.60;99.90;;;;;;6183685;23;20088;-69
2023/09/14 06:11:44;;;;;;;2.05;1.65;;;10.60;99.90;;;;;;6210460;23;20095;-69
2023/09/14 06:14:09;;;;;;;3.33;1.60;;;10.60;99.90;;;;;;6210958;23;20321;-69
2023/09/14 06:16:35;;;;;;;2.78;2.00;;;10.60;99.90;;;;;;6183862;23;20113;-68
2023/09/14 06:19:01;;;;;;;2.17;1.90;;;10.60;99.90;;;;;;6211812;23;20487;-68
2023/09/14 06:21:26;;;;;;;3.53;2.22;;;10.70;99.90;;;;;;6212138;23;20025;-69
2023/09/14 06:23:52;;;;;;;3.60;2.25;;;10.70;99.90;;;;;;6212423;23;20016;-68
2023/09/14 06:26:18;;;;;;;5.53;2.53;;;10.80;99.90;;;;;;6212458;23;20162;-68
2023/09/14 06:28:43;;;;;;;3.45;2.38;;;10.80;99.90;;;;;;6212013;23;20020;-69
2023/09/14 06:31:09;;;;;;;4.95;2.42;;;10.80;99.90;;;;;;6212068;23;20013;-68
2023/09/14 06:33:36;;;;;;;3.55;2.22;;;11.00;99.90;;;;;;6212176;23;20021;-69
2023/09/14 06:36:01;;;;;;;5.65;3.10;;;11.10;99.90;;;;;;6211777;23;20021;-69
2023/09/14 06:38:27;;;;;;;8.35;6.68;;;11.10;99.90;;;;;;6185508;23;20043;-69
2023/09/14 06:40:53;;;;;;;3.50;2.85;;;11.30;99.90;;;;;;6212374;23;20021;-68
2023/09/14 06:43:19;;;;;;;3.15;2.45;;;11.30;99.90;;;;;;6185234;23;20063;-69
2023/09/14 06:45:44;;;;;;;3.38;2.47;;;11.40;99.90;;;;;;6211946;23;20024;-69
2023/09/14 06:48:10;;;;;;;3.72;2.25;;;11.40;99.90;;;;;;6185504;23;20028;-69
2023/09/14 06:50:36;;;;;;;5.18;2.78;;;11.50;99.90;;;;;;6211861;23;20052;-67
2023/09/14 06:53:01;;;;;;;4.93;2.90;;;11.60;99.90;;;;;;6211572;23;20020;-68
2023/09/14 06:55:27;;;;;;;5.55;2.60;;;11.70;99.90;;;;;;6185524;23;20107;-68
2023/09/14 06:57:53;;;;;;;2.88;2.53;;;11.80;99.90;;;;;;6185005;23;20020;-68
2023/09/14 07:00:21;;;;;;;7.45;3.17;;;11.80;99.90;;;;;;6212848;23;20538;-68
2023/09/14 07:02:50;;;;;;;3.53;2.70;;;11.90;99.90;;;;;;6212662;23;20325;-68
2023/09/14 07:05:16;;;;;;;4.70;3.08;;;12.00;99.90;;;;;;6211759;23;20021;-68
2023/09/14 07:07:42;;;;;;;4.22;3.03;;;12.10;99.90;;;;;;6185237;23;20023;-68
2023/09/14 07:10:08;;;;;;;3.90;2.50;;;12.20;99.90;;;;;;6212514;23;20016;-68
2023/09/14 07:12:35;;;;;;;5.00;3.22;;;12.20;99.90;;;;;;6212597;23;20024;-68
2023/09/14 07:15:01;;;;;;;4.05;2.58;;;12.30;99.90;;;;;;6212326;23;20714;-68
2023/09/14 07:17:26;;;;;;;4.35;2.85;;;12.40;99.90;;;;;;6212238;23;20029;-68
2023/09/14 07:19:52;;;;;;;4.95;2.78;;;12.50;99.90;;;;;;6212060;23;20310;-68
2023/09/14 07:22:19;;;;;;;4.70;2.50;;;12.60;99.90;;;;;;6211724;23;20024;-68
2023/09/14 07:24:46;;;;;;;8.73;2.97;;;12.70;99.90;;;;;;6212380;23;20032;-68
2023/09/14 07:27:11;;;;;;;7.38;2.22;;;12.80;99.90;;;;;;6212070;23;20016;-68
2023/09/14 07:29:37;;;;;;;6.63;2.67;;;12.80;99.90;;;;;;6212036;23;20141;-68
2023/09/14 07:32:03;;;;;;;5.45;2.53;;;13.00;99.90;;;;;;6211855;23;20028;-68
2023/09/14 07:34:29;;;;;;;5.85;2.60;;;13.10;99.90;;;;;;6211283;23;20070;-68
2023/09/14 07:36:55;;;;;;;7.45;2.85;;;13.10;99.90;;;;;;6211838;23;20028;-68
2023/09/14 07:39:20;;;;;;;6.03;2.63;;;13.10;99.90;;;;;;6211585;23;20818;-68
2023/09/14 07:41:47;;;;;;;7.40;3.15;;;13.10;99.90;;;;;;6211760;23;20012;-68
2023/09/14 07:44:12;;;;;;;9.00;2.72;;;13.10;99.90;;;;;;6211575;23;20048;-68
2023/09/14 07:46:39;;;;;;;5.03;2.65;;;13.20;99.90;;;;;;6211819;23;20023;-68
2023/09/14 07:49:05;;;;;;;7.57;2.75;;;13.20;99.90;;;;;;6211526;23;20515;-68
2023/09/14 07:51:31;;;;;;;5.38;2.80;;;13.20;99.90;;;;;;6159825;23;20048;-68
2023/09/14 07:53:59;;;;;;;4.43;2.88;;;13.30;99.90;;;;;;6211103;23;20322;-68
2023/09/14 07:56:25;;;;;;;7.28;3.47;;;13.50;99.90;;;;;;6184279;23;20031;-68
2023/09/14 07:58:53;;;;;;;7.28;3.58;;;13.50;99.90;;;;;;6211479;23;20008;-68
2023/09/14 08:01:19;;;;;;;8.35;2.80;;;13.60;99.90;;;;;;6184682;23;20082;-68
2023/09/14 08:03:45;;;;;;;5.43;3.35;;;13.60;99.90;;;;;;6211561;23;20110;-68
2023/09/14 08:06:10;;;;;;;7.68;3.50;;;13.70;99.90;;;;;;6184493;23;20647;-68
2023/09/14 08:08:37;;;;;;;10.93;2.80;;;13.80;99.90;;;;;;6211451;23;20542;-68
2023/09/14 08:11:03;;;;;;;7.20;2.78;;;13.80;99.90;;;;;;6211712;23;20456;-68
2023/09/14 08:13:28;;;;;;;5.15;2.65;;;13.80;99.90;;;;;;6211552;23;20024;-68
2023/09/14 08:15:54;;;;;;;7.47;3.05;;;13.80;99.90;;;;;;6211895;23;20091;-68
2023/09/14 08:18:20;;;;;;;8.88;2.70;;;13.90;99.90;;;;;;6211213;23;20020;-68
2023/09/14 08:20:49;;;;;;;6.05;2.55;;;14.10;99.90;;;;;;6211442;23;20091;-68
2023/09/14 08:23:16;;;;;;;8.48;2.53;;;14.20;99.90;;;;;;6211796;23;20024;-68
2023/09/14 08:25:46;;;;;;;4.45;2.10;;;14.20;99.90;;;;;;6211304;23;20024;-68
2023/09/14 08:28:19;;;;;;;9.88;2.50;;;14.20;99.90;;;;;;6211472;23;20421;-68
2023/09/14 08:30:46;;;;;;;5.97;2.38;;;14.20;99.90;;;;;;6211106;23;20040;-68
2023/09/14 08:33:12;;;;;;;5.78;2.60;;;14.20;99.90;;;;;;6210791;23;20060;-68
2023/09/14 08:35:39;;;;;;;3.38;2.08;;;14.30;99.90;;;;;;6211032;23;20489;-68
2023/09/14 08:38:06;;;;;;;4.88;2.30;;;14.20;99.90;;;;;;6211072;23;20027;-68
2023/09/14 08:40:33;;;;;;;4.20;1.92;;;14.50;99.90;;;;;;6184141;23;20017;-67
2023/09/14 08:43:00;;;;;;;5.43;2.03;;;14.60;99.90;;;;;;6210882;23;20310;-67
2023/09/14 08:45:28;;;;;;;6.43;1.95;;;14.70;99.90;;;;;;6211166;23;20470;-67
2023/09/14 08:47:55;;;;;;;5.75;2.90;;;14.70;99.90;;;;;;6184058;23;20012;-68
2023/09/14 08:50:23;;;;;;;8.05;2.38;;;14.70;99.90;;;;;;6159449;23;20035;-68
2023/09/14 08:52:49;;;;;;;5.15;3.55;;;14.90;99.90;;;;;;6210989;23;20100;-67
2023/09/14 08:55:18;;;;;;;9.75;3.55;;;14.90;99.90;;;;;;6211320;23;20357;-68
2023/09/14 08:57:45;;;;;;;9.65;2.20;;;14.90;99.90;;;;;;6210676;23;20020;-68
2023/09/14 09:00:15;;;;;;;3.72;2.10;;;15.00;99.90;;;;;;6183721;23;20020;-68
2023/09/14 09:02:46;;;;;;;3.53;1.88;;;15.20;99.90;;;;;;6183917;23;20035;-69
2023/09/14 09:05:14;;;;;;;8.55;1.80;;;15.10;99.90;;;;;;6211048;23;20043;-69
2023/09/14 09:07:40;;;;;;;3.92;1.50;;;15.30;99.90;;;;;;6184072;23;20021;-68
2023/09/14 09:10:22;;;;;;;4.32;1.83;;;15.40;99.90;;;;;;6210684;23;20519;-69
2023/09/14 09:12:54;;;;;;;5.20;1.70;;;15.50;99.90;;;;;;6183854;23;20124;-68
2023/09/14 09:15:24;;;;;;;7.63;2.65;;;15.50;99.90;;;;;;6210841;23;20322;-69
2023/09/14 09:17:53;;;;;;;8.68;2.60;;;15.70;99.90;;;;;;6184276;23;20036;-68
2023/09/14 09:20:22;;;;;;;7.53;2.17;;;15.80;99.90;;;;;;6183780;23;20020;-68
2023/09/14 09:22:54;;;;;;;8.60;1.75;;;15.80;99.90;;;;;;6183859;23;20632;-68
2023/09/14 09:25:22;;;;;;;3.67;1.80;;;15.90;99.90;;;;;;6183951;23;20024;-68
2023/09/14 09:27:56;;;;;;;9.05;2.65;;;15.90;99.90;;;;;;6210873;23;20024;-68
2023/09/14 09:30:28;;;;;;;7.63;1.90;;;15.90;99.90;;;;;;6210910;23;20020;-68
2023/09/14 09:32:55;;;;;;;;;;;15.90;99.90;;;;;;6211605;23;20008;-68
2023/09/14 09:35:22;;;;;;;10.63;1.80;;;15.80;99.90;;;;;;6210442;23;19923;-68
2023/09/14 09:37:49;;;;;;;4.53;1.50;;;16.10;99.90;;;;;;6183622;23;20024;-68
2023/09/14 09:40:17;;;;;;;7.97;1.80;;;16.20;99.90;;;;;;6210739;23;20039;-68
2023/09/14 09:42:43;;;;;;;10.57;2.10;;;16.10;99.90;;;;;;6210425;23;20028;-68
2023/09/14 09:45:10;;;;;;;5.65;1.70;;;16.30;99.90;;;;;;6183583;23;20072;-68
2023/09/14 09:47:36;;;;;;;6.65;1.77;;;16.30;99.90;;;;;;6210892;23;20325;-68
2023/09/14 09:50:07;;;;;;;5.90;1.45;;;16.30;99.90;;;;;;6210301;23;20013;-69
2023/09/14 09:52:33;;;;;;;4.85;1.52;;;16.40;99.90;;;;;;6183827;23;20103;-68
2023/09/14 09:55:01;;;;;;;6.95;1.60;;;16.40;99.90;;;;;;6186014;23;20028;-68
2023/09/14 09:57:32;;;;;;;10.35;2.08;;;16.50;99.90;;;;;;6212053;23;20012;-68
2023/09/14 09:59:58;;;;;;;9.80;1.80;;;16.50;99.90;;;;;;6212639;23;20043;-69
2023/09/14 10:02:31;;;;;;;4.75;1.50;;;16.50;99.90;;;;;;6185443;23;20344;-68
2023/09/14 10:04:58;;;;;;;5.20;1.60;;;16.50;99.90;;;;;;6212554;23;20024;-68
2023/09/14 10:07:24;;;;;;;9.82;1.90;;;16.60;99.90;;;;;;6212265;23;20448;-68
2023/09/14 10:09:54;;;;;;;5.13;1.35;;;16.70;99.90;;;;;;6212488;23;20043;-68
2023/09/14 10:12:27;;;;;;;5.63;1.80;;;16.80;99.90;;;;;;6212929;23;20093;-68
2023/09/14 10:14:59;;;;;;;6.53;1.38;;;16.80;99.90;;;;;;6186020;23;20437;-68
2023/09/14 10:17:30;;;;;;;6.88;1.63;;;16.80;99.90;;;;;;6213315;23;20020;-68
2023/09/14 10:19:58;;;;;;;4.45;1.73;;;16.80;99.90;;;;;;6213048;23;20019;-68
2023/09/14 10:22:25;;;;;;;8.20;1.90;;;16.80;99.90;;;;;;6212884;23;20052;-69
2023/09/14 10:24:52;;;;;;;10.98;1.90;;;16.70;99.90;;;;;;6161088;23;20020;-68
2023/09/14 10:27:19;;;;;;;7.32;1.33;;;16.80;99.90;;;;;;6185658;23;20024;-68
2023/09/14 10:29:44;;;;;;;6.28;1.40;;;16.70;99.90;;;;;;6211895;23;20023;-68
2023/09/14 10:32:12;;;;;;;3.65;1.77;;;16.90;99.90;;;;;;6212094;23;20104;-68
2023/09/14 10:34:41;;;;;;;6.82;1.40;;;17.00;99.90;;;;;;6212353;23;20016;-68
2023/09/14 10:37:11;;;;;;;7.75;2.08;;;17.00;99.90;;;;;;6160401;23;20025;-68
2023/09/14 10:39:37;;;;;;;3.75;1.67;;;16.90;99.90;;;;;;6212329;23;20091;-68
2023/09/14 10:42:06;;;;;;;7.50;1.70;;;16.80;99.90;;;;;;6211786;23;20511;-68
2023/09/14 10:44:33;;;;;;;8.98;1.67;;;16.80;99.90;;;;;;6211870;23;20028;-68
2023/09/14 10:47:01;;;;;;;6.55;1.58;;;16.80;99.90;;;;;;6211818;23;20020;-68
2023/09/14 10:49:32;;;;;;;4.82;1.50;;;17.00;99.90;;;;;;6212016;23;20028;-68
2023/09/14 10:51:58;;;;;;;9.75;1.60;;;17.10;99.90;;;;;;6212235;23;20017;-68
2023/09/14 10:54:30;;;;;;;5.10;1.52;;;17.10;99.90;;;;;;6179966;23;20048;-68
2023/09/14 10:57:00;;;;;;;5.38;1.75;;;17.10;99.90;;;;;;6181350;23;20020;-68
2023/09/14 10:59:45;;;;;;;3.92;1.52;;;17.10;99.90;;;;;;6180026;23;20021;-68
2023/09/14 11:02:11;;;;;;;8.20;1.52;;;17.30;99.90;;;;;;6180078;23;20035;-68
2023/09/14 11:05:15;;;;;;;3.42;1.52;;;17.30;99.90;;;;;;6181617;23;20021;-68
2023/09/14 11:07:47;;;;;;;8.68;1.88;;;17.30;99.90;;;;;;6180162;23;20028;-68
2023/09/14 11:10:19;;;;;;;;;;;17.30;99.90;;;;;;6182832;23;20436;-68
2023/09/14 11:12:48;;;;;;;8.80;1.73;;;17.20;99.90;;;;;;6181950;23;19924;-68
2023/09/14 11:15:20;;;;;;;4.00;1.50;;;17.20;99.90;;;;;;6182082;23;20032;-68
2023/09/14 11:17:51;;;;;;;5.47;1.52;;;17.20;99.90;;;;;;6182532;23;20446;-68
2023/09/14 11:20:19;;;;;;;5.93;2.03;;;17.20;99.90;;;;;;6180239;23;20028;-68
2023/09/14 11:22:46;;;;;;;6.13;1.50;;;17.20;99.90;;;;;;6179489;23;20091;-68
2023/09/14 11:25:31;;;;;;;5.07;1.90;;;17.30;99.90;;;;;;6179892;23;20017;-68
2023/09/14 11:27:57;;;;;;;2.83;1.42;;;17.20;99.90;;;;;;6181243;23;20083;-68
2023/09/14 11:30:24;;;;;;;7.25;1.40;;;17.20;99.90;;;;;;6181259;23;20100;-68
2023/09/14 11:32:52;;;;;;;5.68;1.50;;;17.20;99.90;;;;;;6181433;23;20017;-68
2023/09/14 11:35:31;;;;;;;7.18;1.63;;;17.20;99.90;;;;;;6179899;23;20330;-68
2023/09/14 11:38:03;;;;;;;5.47;1.80;;;17.20;99.90;;;;;;6181751;23;20029;-68
2023/09/14 11:40:33;;;;;;;5.13;2.00;;;17.20;99.90;;;;;;6181516;23;20017;-68
2023/09/14 11:43:10;;;;;;;8.65;2.58;;;17.40;99.90;;;;;;6181492;23;20044;-68
2023/09/14 11:45:40;;;;;;;10.85;1.73;;;17.40;99.90;;;;;;6179740;23;20544;-68
2023/09/14 11:48:08;;;;;;;7.65;1.65;;;17.50;99.90;;;;;;6181729;23;20088;-68
2023/09/14 11:50:35;;;;;;;8.73;1.77;;;17.60;99.90;;;;;;6181886;23;20461;-68
2023/09/14 11:53:00;;;;;;;5.75;1.80;;;17.70;99.90;;;;;;6188993;23;20100;-68
2023/09/14 11:55:26;;;;;;;5.80;1.95;;;17.70;99.90;;;;;;6211322;23;20118;-68
2023/09/14 11:57:56;;;;;;;5.50;1.50;;;17.70;99.90;;;;;;6211049;23;20023;-68
2023/09/14 12:00:22;;;;;;;5.32;1.30;;;17.70;99.90;;;;;;6211526;23;20066;-69
2023/09/14 12:02:48;;;;;;;4.03;1.75;;;17.80;99.90;;;;;;6211400;23;20017;-68
2023/09/14 12:05:16;;;;;;;4.13;1.80;;;18.00;99.90;;;;;;6211580;23;20016;-68
2023/09/14 12:07:42;;;;;;;3.40;1.90;;;18.00;99.90;;;;;;6211609;23;20032;-68
2023/09/14 12:10:21;;;;;;;5.22;1.77;;;18.10;99.90;;;;;;6184411;23;20020;-69
2023/09/14 12:12:47;;;;;;;4.53;1.70;;;18.10;99.90;;;;;;6184832;23;20017;-68
2023/09/14 12:15:20;;;;;;;6.50;1.95;;;18.30;99.90;;;;;;6211679;23;20090;-68
2023/09/14 12:17:53;;;;;;;7.35;2.15;;;18.30;99.90;;;;;;6211626;23;20024;-68
2023/09/14 12:20:19;;;;;;;5.00;1.50;;;18.50;99.90;;;;;;6211507;23;20023;-68
2023/09/14 12:22:46;;;;;;;7.03;1.83;;;18.50;99.90;;;;;;6184273;23;20032;-68
2023/09/14 12:25:17;;;;;;;5.57;1.70;;;18.50;99.90;;;;;;6211098;23;20016;-68
2023/09/14 12:27:43;;;;;;;5.03;1.88;;;18.50;99.90;;;;;;6184297;23;20024;-68
2023/09/14 12:30:11;;;;;;;5.22;1.90;;;18.30;99.90;;;;;;6184123;23;20023;-68
2023/09/14 12:32:38;;;;;;;8.27;1.83;;;18.30;99.90;;;;;;6184114;23;20024;-69
2023/09/14 12:35:06;;;;;;;6.53;2.17;;;18.20;99.90;;;;;;6210776;23;20670;-69
2023/09/14 12:37:32;;;;;;;6.35;1.63;;;18.10;99.90;;;;;;6211129;23;20345;-69
2023/09/14 12:40:10;;;;;;;6.85;2.58;;;18.20;99.90;;;;;;6210835;23;20021;-68
2023/09/14 12:42:37;;;;;;;4.90;1.65;;;18.20;99.90;;;;;;6184030;23;20024;-68
2023/09/14 12:45:14;;;;;;;6.82;1.80;;;18.20;99.90;;;;;;6183991;23;20084;-68
2023/09/14 12:47:41;;;;;;;5.60;1.60;;;18.10;99.90;;;;;;6184148;23;20024;-68
2023/09/14 12:50:15;;;;;;;8.40;2.30;;;18.30;99.90;;;;;;6210672;23;20052;-68